createdAt,value
2023-05-03T00:00:13.970Z,232.63
2023-05-03T00:01:14.074Z,228.64
2023-05-03T00:02:14.170Z,238.23
2023-05-03T00:03:14.107Z,235.06
2023-05-03T00:04:14.112Z,238.91
2023-05-03T00:05:14.189Z,241.65
2023-05-03T00:06:14.202Z,247.46
2023-05-03T00:07:14.178Z,249.48
2023-05-03T00:08:14.137Z,232.53
2023-05-03T00:09:14.185Z,233.39
2023-05-03T00:10:14.264Z,233.04
2023-05-03T00:11:14.260Z,229.23
2023-05-03T00:12:14.258Z,225.05
2023-05-03T00:13:14.317Z,223.43
2023-05-03T00:14:14.370Z,224.77
2023-05-03T00:15:14.404Z,233.30
2023-05-03T00:16:14.485Z,231.20
2023-05-03T00:17:14.716Z,235.27
2023-05-03T00:18:14.522Z,234.69
2023-05-03T00:19:24.329Z,235.19
2023-05-03T00:20:15.465Z,235.56
2023-05-03T00:21:14.441Z,237.18
2023-05-03T00:22:14.475Z,237.79
2023-05-03T00:23:14.437Z,236.31
2023-05-03T00:24:14.467Z,233.22
2023-05-03T00:25:14.459Z,231.93
2023-05-03T00:26:14.474Z,232.66
2023-05-03T00:27:14.437Z,236.34
2023-05-03T00:28:14.421Z,238.82
2023-05-03T00:29:14.386Z,238.84
2023-05-03T00:30:14.407Z,240.01
2023-05-03T00:31:14.524Z,236.18
2023-05-03T00:32:14.555Z,236.21
2023-05-03T00:33:14.549Z,241.28
2023-05-03T00:34:14.600Z,244.59
2023-05-03T00:35:14.565Z,244.02
2023-05-03T00:36:14.585Z,241.78
2023-05-03T00:37:14.694Z,243.53
2023-05-03T00:38:14.703Z,242.64
2023-05-03T00:39:14.745Z,237.28
2023-05-03T00:40:14.757Z,238.74
2023-05-03T00:41:14.826Z,241.79
2023-05-03T00:42:14.888Z,238.01
2023-05-03T00:43:14.884Z,239.27
2023-05-03T00:44:14.938Z,236.67
2023-05-03T00:45:14.995Z,236.83
2023-05-03T00:46:17.396Z,238.95
2023-05-03T00:47:15.260Z,241.32
2023-05-03T00:48:15.020Z,244.47
2023-05-03T00:49:15.026Z,231.65
2023-05-03T00:50:14.964Z,232.46
2023-05-03T00:51:15.038Z,233.13
2023-05-03T00:52:14.993Z,234.51
2023-05-03T00:53:14.940Z,232.89
2023-05-03T00:54:14.957Z,236.19
2023-05-03T00:55:14.973Z,237.46
2023-05-03T00:56:14.932Z,235.64
2023-05-03T00:57:14.940Z,229.27
2023-05-03T00:58:14.940Z,229.05
2023-05-03T00:59:14.936Z,233.02
2023-05-03T01:00:14.921Z,235.60
2023-05-03T01:01:14.928Z,229.04
2023-05-03T01:02:14.957Z,227.94
2023-05-03T01:03:14.938Z,229.80
2023-05-03T01:04:14.885Z,235.44
2023-05-03T01:05:14.894Z,235.37
2023-05-03T01:06:14.929Z,233.87
2023-05-03T01:07:14.880Z,235.26
2023-05-03T01:08:14.884Z,238.89
2023-05-03T01:09:14.858Z,237.34
2023-05-03T01:10:14.793Z,243.23
2023-05-03T01:11:14.802Z,243.15
2023-05-03T01:12:14.834Z,240.95
2023-05-03T01:13:14.850Z,239.24
2023-05-03T01:14:14.821Z,235.22
2023-05-03T01:15:14.800Z,234.83
2023-05-03T01:16:14.933Z,229.44
2023-05-03T01:17:14.800Z,229.93
2023-05-03T01:18:14.804Z,228.93
2023-05-03T01:19:14.804Z,233.02
2023-05-03T01:20:14.841Z,234.50
2023-05-03T01:21:14.777Z,235.90
2023-05-03T01:22:14.778Z,236.38
2023-05-03T01:23:14.799Z,235.01
2023-05-03T01:24:14.746Z,234.88
2023-05-03T01:25:14.712Z,232.22
2023-05-03T01:26:14.728Z,235.78
2023-05-03T01:27:14.724Z,238.44
2023-05-03T01:28:14.718Z,240.99
2023-05-03T01:29:14.699Z,242.30
2023-05-03T01:30:14.710Z,240.26
2023-05-03T01:31:14.730Z,240.16
2023-05-03T01:32:14.689Z,239.30
2023-05-03T01:33:14.671Z,241.55
2023-05-03T01:34:14.658Z,234.85
2023-05-03T01:35:14.667Z,224.73
2023-05-03T01:36:14.692Z,227.35
2023-05-03T01:37:14.641Z,238.77
2023-05-03T01:38:14.632Z,231.54
2023-05-03T01:39:14.656Z,231.65
2023-05-03T01:40:14.634Z,233.88
2023-05-03T01:41:14.607Z,235.18
2023-05-03T01:42:14.666Z,241.79
2023-05-03T01:43:14.632Z,232.30
2023-05-03T01:44:14.606Z,235.72
2023-05-03T01:45:14.620Z,227.66
2023-05-03T01:46:14.622Z,221.87
2023-05-03T01:47:14.615Z,220.98
2023-05-03T01:48:14.587Z,218.93
2023-05-03T01:49:14.590Z,219.73
2023-05-03T01:50:14.547Z,215.30
2023-05-03T01:51:14.547Z,214.89
2023-05-03T01:52:14.557Z,221.59
2023-05-03T01:53:14.614Z,219.60
2023-05-03T01:54:14.593Z,218.41
2023-05-03T01:55:14.603Z,222.57
2023-05-03T01:56:14.615Z,219.29
2023-05-03T01:57:14.679Z,223.22
2023-05-03T01:58:14.679Z,223.78
2023-05-03T01:59:14.697Z,225.56
2023-05-03T02:00:14.730Z,229.18
2023-05-03T02:01:14.781Z,226.39
2023-05-03T02:02:14.779Z,226.05
2023-05-03T02:03:14.771Z,226.50
2023-05-03T02:04:14.880Z,223.79
2023-05-03T02:05:14.890Z,223.18
2023-05-03T02:06:14.880Z,223.43
2023-05-03T02:07:14.969Z,221.69
2023-05-03T02:08:14.985Z,224.17
2023-05-03T02:09:14.985Z,218.91
2023-05-03T02:10:15.157Z,219.67
2023-05-03T02:11:15.068Z,222.08
2023-05-03T02:12:15.147Z,219.17
2023-05-03T02:13:15.130Z,219.12
2023-05-03T02:14:15.155Z,225.00
2023-05-03T02:15:15.225Z,226.30
2023-05-03T02:16:15.244Z,232.49
2023-05-03T02:17:15.273Z,232.38
2023-05-03T02:18:15.215Z,239.29
2023-05-03T02:19:15.277Z,236.16
2023-05-03T02:20:15.306Z,232.24
2023-05-03T02:21:15.288Z,232.67
2023-05-03T02:22:15.355Z,234.73
2023-05-03T02:23:15.340Z,233.98
2023-05-03T02:24:15.314Z,237.20
2023-05-03T02:25:15.330Z,237.07
2023-05-03T02:26:15.334Z,232.91
2023-05-03T02:27:15.376Z,236.58
2023-05-03T02:28:15.362Z,235.08
2023-05-03T02:29:15.365Z,236.59
2023-05-03T02:30:15.402Z,237.05
2023-05-03T02:31:15.451Z,235.47
2023-05-03T02:32:15.460Z,233.67
2023-05-03T02:33:15.433Z,232.72
2023-05-03T02:34:15.438Z,234.89
2023-05-03T02:35:15.495Z,232.69
2023-05-03T02:36:15.511Z,235.72
2023-05-03T02:37:15.530Z,232.40
2023-05-03T02:38:15.563Z,232.75
2023-05-03T02:39:15.590Z,234.22
2023-05-03T02:40:15.581Z,239.80
2023-05-03T02:41:15.657Z,240.50
2023-05-03T02:42:15.713Z,241.26
2023-05-03T02:43:15.704Z,243.06
2023-05-03T02:44:15.711Z,240.79
2023-05-03T02:45:15.732Z,230.21
2023-05-03T02:46:15.756Z,230.52
2023-05-03T02:47:15.778Z,220.81
2023-05-03T02:48:15.854Z,219.81
2023-05-03T02:49:15.849Z,220.90
2023-05-03T02:50:15.843Z,218.78
2023-05-03T02:51:15.923Z,213.49
2023-05-03T02:52:15.949Z,212.88
2023-05-03T02:53:15.984Z,212.12
2023-05-03T02:54:16.003Z,215.54
2023-05-03T02:55:16.059Z,220.27
2023-05-03T02:56:16.068Z,217.29
2023-05-03T02:57:16.180Z,219.76
2023-05-03T02:58:16.183Z,224.60
2023-05-03T02:59:16.233Z,228.70
2023-05-03T03:00:16.563Z,222.63
2023-05-03T03:01:16.303Z,218.18
2023-05-03T03:02:16.290Z,219.96
2023-05-03T03:03:16.418Z,222.18
2023-05-03T03:04:16.341Z,225.35
2023-05-03T03:05:16.369Z,221.82
2023-05-03T03:06:16.508Z,217.66
2023-05-03T03:07:16.496Z,213.57
2023-05-03T03:08:16.557Z,216.55
2023-05-03T03:09:16.530Z,210.49
2023-05-03T03:10:16.590Z,210.86
2023-05-03T03:11:16.683Z,210.31
2023-05-03T03:12:16.718Z,207.78
2023-05-03T03:13:16.705Z,205.20
2023-05-03T03:14:16.799Z,207.19
2023-05-03T03:15:16.759Z,209.29
2023-05-03T03:16:16.775Z,211.85
2023-05-03T03:17:16.792Z,209.66
2023-05-03T03:18:18.312Z,207.04
2023-05-03T03:19:16.825Z,209.23
2023-05-03T03:20:16.825Z,213.30
2023-05-03T03:21:16.788Z,214.88
2023-05-03T03:22:16.810Z,215.96
2023-05-03T03:23:16.771Z,214.77
2023-05-03T03:24:16.768Z,218.87
2023-05-03T03:25:16.761Z,222.06
2023-05-03T03:26:16.701Z,222.47
2023-05-03T03:27:16.742Z,226.68
2023-05-03T03:28:16.756Z,228.24
2023-05-03T03:29:16.742Z,228.24
2023-05-03T03:30:16.726Z,221.95
2023-05-03T03:31:16.724Z,221.21
2023-05-03T03:32:16.728Z,227.34
2023-05-03T03:33:16.760Z,231.67
2023-05-03T03:34:16.689Z,235.70
2023-05-03T03:35:16.683Z,228.44
2023-05-03T03:36:16.651Z,229.32
2023-05-03T03:37:16.693Z,235.99
2023-05-03T03:38:16.662Z,234.75
2023-05-03T03:39:16.667Z,229.85
2023-05-03T03:40:16.672Z,232.06
2023-05-03T03:41:16.697Z,234.84
2023-05-03T03:42:18.018Z,227.80
2023-05-03T03:43:16.628Z,226.71
2023-05-03T03:44:16.715Z,228.31
2023-05-03T03:45:16.717Z,228.79
2023-05-03T03:46:16.758Z,225.81
2023-05-03T03:47:16.852Z,226.17
2023-05-03T03:48:16.829Z,228.65
2023-05-03T03:49:16.756Z,231.23
2023-05-03T03:50:16.785Z,237.16
2023-05-03T03:51:16.784Z,242.45
2023-05-03T03:52:16.918Z,248.67
2023-05-03T03:53:16.848Z,245.07
2023-05-03T03:54:16.883Z,242.07
2023-05-03T03:55:16.886Z,241.16
2023-05-03T03:56:16.890Z,233.56
2023-05-03T03:57:16.880Z,235.40
2023-05-03T03:58:16.900Z,235.91
2023-05-03T03:59:16.922Z,235.36
2023-05-03T04:00:17.015Z,235.70
2023-05-03T04:01:16.915Z,238.48
2023-05-03T04:02:17.037Z,237.23
2023-05-03T04:03:17.110Z,232.81
2023-05-03T04:04:17.178Z,229.67
2023-05-03T04:05:17.007Z,229.69
2023-05-03T04:06:18.021Z,233.37
2023-05-03T04:07:17.055Z,237.13
2023-05-03T04:08:17.070Z,241.86
2023-05-03T04:09:17.139Z,242.73
2023-05-03T04:10:17.126Z,248.71
2023-05-03T04:11:17.195Z,245.53
2023-05-03T04:12:17.220Z,238.88
2023-05-03T04:13:17.316Z,240.45
2023-05-03T04:14:17.259Z,238.95
2023-05-03T04:15:17.320Z,241.90
2023-05-03T04:16:17.363Z,246.14
2023-05-03T04:17:17.326Z,245.30
2023-05-03T04:18:17.382Z,236.95
2023-05-03T04:19:17.394Z,236.55
2023-05-03T04:20:17.394Z,232.17
2023-05-03T04:21:17.481Z,232.90
2023-05-03T04:22:17.459Z,231.93
2023-05-03T04:23:17.525Z,228.68
2023-05-03T04:24:17.590Z,229.76
2023-05-03T04:25:17.576Z,229.12
2023-05-03T04:26:30.146Z,229.24
2023-05-03T04:27:18.629Z,229.28
2023-05-03T04:28:17.662Z,229.58
2023-05-03T04:29:17.596Z,230.17
2023-05-03T04:30:17.585Z,231.15
2023-05-03T04:31:17.610Z,234.36
2023-05-03T04:32:17.621Z,235.61
2023-05-03T04:33:17.552Z,233.26
2023-05-03T04:34:18.481Z,228.35
2023-05-03T04:35:17.550Z,233.79
2023-05-03T04:36:17.565Z,235.55
2023-05-03T04:37:17.516Z,237.31
2023-05-03T04:38:17.531Z,238.55
2023-05-03T04:39:17.502Z,239.54
2023-05-03T04:40:17.528Z,240.72
2023-05-03T04:41:17.501Z,238.78
2023-05-03T04:42:17.504Z,243.29
2023-05-03T04:43:17.500Z,237.37
2023-05-03T04:44:17.539Z,239.81
2023-05-03T04:45:17.523Z,242.28
2023-05-03T04:46:17.610Z,241.45
2023-05-03T04:47:17.597Z,245.13
2023-05-03T04:48:17.647Z,246.67
2023-05-03T04:49:17.652Z,244.73
2023-05-03T04:50:17.682Z,249.00
2023-05-03T04:51:17.724Z,250.00
2023-05-03T04:52:17.724Z,249.92
2023-05-03T04:53:17.811Z,243.50
2023-05-03T04:54:17.755Z,242.91
2023-05-03T04:55:17.742Z,238.52
2023-05-03T04:56:17.773Z,242.44
2023-05-03T04:57:17.914Z,237.92
2023-05-03T04:58:17.865Z,239.71
2023-05-03T04:59:17.881Z,244.69
2023-05-03T05:00:17.928Z,246.42
2023-05-03T05:01:18.011Z,245.85
2023-05-03T05:02:18.061Z,244.79
2023-05-03T05:03:18.173Z,245.48
2023-05-03T05:04:18.156Z,244.28
2023-05-03T05:05:19.654Z,239.96
2023-05-03T05:06:18.277Z,239.22
2023-05-03T05:07:18.281Z,235.28
2023-05-03T05:08:18.275Z,232.76
2023-05-03T05:09:18.343Z,234.62
2023-05-03T05:10:18.328Z,236.09
2023-05-03T05:11:18.360Z,234.65
2023-05-03T05:12:18.433Z,231.82
2023-05-03T05:13:18.417Z,227.76
2023-05-03T05:14:18.488Z,229.07
2023-05-03T05:15:18.501Z,226.85
2023-05-03T05:16:18.547Z,228.19
2023-05-03T05:17:18.680Z,232.01
2023-05-03T05:18:18.746Z,231.43
2023-05-03T05:19:18.647Z,233.56
2023-05-03T05:20:19.044Z,234.00
2023-05-03T05:21:18.660Z,226.56
2023-05-03T05:22:18.687Z,217.44
2023-05-03T05:23:18.724Z,220.71
2023-05-03T05:24:18.718Z,230.57
2023-05-03T05:25:18.743Z,213.97
2023-05-03T05:26:18.802Z,219.17
2023-05-03T05:27:18.814Z,224.57
2023-05-03T05:28:18.861Z,207.61
2023-05-03T05:29:18.952Z,204.74
2023-05-03T05:30:18.907Z,206.38
2023-05-03T05:31:19.010Z,213.20
2023-05-03T05:32:18.964Z,225.87
2023-05-03T05:33:19.423Z,212.65
2023-05-03T05:34:19.038Z,218.56
2023-05-03T05:35:19.043Z,222.11
2023-05-03T05:36:19.072Z,210.54
2023-05-03T05:37:19.100Z,214.75
2023-05-03T05:38:19.114Z,220.04
2023-05-03T05:39:19.116Z,223.84
2023-05-03T05:40:19.186Z,216.59
2023-05-03T05:41:19.151Z,214.35
2023-05-03T05:42:19.175Z,224.10
2023-05-03T05:43:19.537Z,227.49
2023-05-03T05:44:19.197Z,216.13
2023-05-03T05:45:19.242Z,220.87
2023-05-03T05:46:19.267Z,215.78
2023-05-03T05:47:19.286Z,220.71
2023-05-03T05:48:19.313Z,223.22
2023-05-03T05:49:19.272Z,215.32
2023-05-03T05:50:19.736Z,205.76
2023-05-03T05:51:19.393Z,211.59
2023-05-03T05:52:19.366Z,218.28
2023-05-03T05:53:19.535Z,218.46
2023-05-03T05:54:19.432Z,222.62
2023-05-03T05:55:19.454Z,231.13
2023-05-03T05:56:19.703Z,224.00
2023-05-03T05:57:19.536Z,231.72
2023-05-03T05:58:20.062Z,229.87
2023-05-03T05:59:19.551Z,227.69
2023-05-03T06:00:19.650Z,223.52
2023-05-03T06:01:19.629Z,222.19
2023-05-03T06:02:19.730Z,209.83
2023-05-03T06:03:20.089Z,216.72
2023-05-03T06:04:19.742Z,219.10
2023-05-03T06:05:19.806Z,220.35
2023-05-03T06:06:27.505Z,230.30
2023-05-03T06:07:19.737Z,227.71
2023-05-03T06:08:19.790Z,225.73
2023-05-03T06:10:19.730Z,230.46
2023-05-03T06:11:19.760Z,223.62
2023-05-03T06:12:19.748Z,206.17
2023-05-03T06:13:19.779Z,202.15
2023-05-03T06:14:19.773Z,210.19
2023-05-03T06:15:19.710Z,200.61
2023-05-03T06:16:19.763Z,184.92
2023-05-03T06:17:20.011Z,192.33
2023-05-03T06:18:19.837Z,201.10
2023-05-03T06:19:19.701Z,200.90
2023-05-03T06:20:19.716Z,195.91
2023-05-03T06:21:19.680Z,201.80
2023-05-03T06:22:19.703Z,213.08
2023-05-03T06:23:19.743Z,208.88
2023-05-03T06:24:19.681Z,195.02
2023-05-03T06:25:19.668Z,189.28
2023-05-03T06:26:19.637Z,188.32
2023-05-03T06:27:19.655Z,191.48
2023-05-03T06:28:19.679Z,195.14
2023-05-03T06:29:19.659Z,205.19
2023-05-03T06:30:19.625Z,204.45
2023-05-03T06:31:19.693Z,208.45
2023-05-03T06:32:19.652Z,205.92
2023-05-03T06:33:19.674Z,208.27
2023-05-03T06:34:19.606Z,209.71
2023-05-03T06:35:19.686Z,204.43
2023-05-03T06:36:19.606Z,210.19
2023-05-03T06:37:19.620Z,210.47
2023-05-03T06:38:19.654Z,205.78
2023-05-03T06:39:19.823Z,204.99
2023-05-03T06:40:19.610Z,218.93
2023-05-03T06:41:19.661Z,206.80
2023-05-03T06:42:19.536Z,208.93
2023-05-03T06:43:19.615Z,211.53
2023-05-03T06:44:19.528Z,208.15
2023-05-03T06:45:19.574Z,207.24
2023-05-03T06:46:20.472Z,213.07
2023-05-03T06:47:19.562Z,218.16
2023-05-03T06:48:19.730Z,226.57
2023-05-03T06:49:19.530Z,224.99
2023-05-03T06:50:19.494Z,237.98
2023-05-03T06:51:19.496Z,239.21
2023-05-03T06:52:19.581Z,232.81
2023-05-03T06:53:19.614Z,235.85
2023-05-03T06:54:19.534Z,239.61
2023-05-03T06:55:27.155Z,225.60
2023-05-03T06:56:19.506Z,215.55
2023-05-03T06:57:19.448Z,207.10
2023-05-03T06:58:19.514Z,191.28
2023-05-03T06:59:19.415Z,192.05
2023-05-03T07:00:19.439Z,205.63
2023-05-03T07:01:19.512Z,206.96
2023-05-03T07:02:19.468Z,180.76
2023-05-03T07:03:19.578Z,170.84
2023-05-03T07:04:19.617Z,185.25
2023-05-03T07:05:19.405Z,190.94
2023-05-03T07:06:19.430Z,202.04
2023-05-03T07:07:19.509Z,206.52
2023-05-03T07:08:19.432Z,204.84
2023-05-03T07:09:22.060Z,199.39
2023-05-03T07:10:20.385Z,193.88
2023-05-03T07:11:19.338Z,188.75
2023-05-03T07:12:19.379Z,199.88
2023-05-03T07:13:19.365Z,207.97
2023-05-03T07:14:19.339Z,222.57
2023-05-03T07:15:19.347Z,220.92
2023-05-03T07:16:19.391Z,218.55
2023-05-03T07:17:19.372Z,210.45
2023-05-03T07:18:19.381Z,207.85
2023-05-03T07:19:19.373Z,211.94
2023-05-03T07:20:19.344Z,204.27
2023-05-03T07:21:19.301Z,204.94
2023-05-03T07:22:19.271Z,215.70
2023-05-03T07:23:19.301Z,213.54
2023-05-03T07:24:19.305Z,196.45
2023-05-03T07:25:19.330Z,200.37
2023-05-03T07:26:19.422Z,207.42
2023-05-03T07:27:19.441Z,209.93
2023-05-03T07:28:19.861Z,204.03
2023-05-03T07:29:19.441Z,194.72
2023-05-03T07:30:19.473Z,186.01
2023-05-03T07:31:19.606Z,185.24
2023-05-03T07:32:19.541Z,175.79
2023-05-03T07:33:19.614Z,166.92
2023-05-03T07:34:20.190Z,176.03
2023-05-03T07:35:19.624Z,186.62
2023-05-03T07:36:19.602Z,162.71
2023-05-03T07:37:19.628Z,166.19
2023-05-03T07:38:19.687Z,156.44
2023-05-03T07:39:19.661Z,171.29
2023-05-03T07:40:19.714Z,178.94
2023-05-03T07:41:19.774Z,164.29
2023-05-03T07:42:19.780Z,178.15
2023-05-03T07:43:20.157Z,167.22
2023-05-03T07:44:19.851Z,157.31
2023-05-03T07:45:19.866Z,158.05
2023-05-03T07:46:20.026Z,170.72
2023-05-03T07:47:19.952Z,144.87
2023-05-03T07:48:20.033Z,140.73
2023-05-03T07:49:19.961Z,151.58
2023-05-03T07:50:20.053Z,119.01
2023-05-03T07:51:20.101Z,94.96
2023-05-03T07:52:20.096Z,111.92
2023-05-03T07:53:20.192Z,91.22
2023-05-03T07:54:20.126Z,68.65
2023-05-03T07:55:20.117Z,68.65
2023-05-03T07:56:20.116Z,63.03
2023-05-03T07:57:20.276Z,58.20
2023-05-03T07:58:28.383Z,58.72
2023-05-03T07:59:21.263Z,59.08
2023-05-03T08:00:20.249Z,42.41
2023-05-03T08:01:20.286Z,60.49
2023-05-03T08:02:20.302Z,43.94
2023-05-03T08:03:20.363Z,47.55
2023-05-03T08:04:20.359Z,40.57
2023-05-03T08:05:20.290Z,49.78
2023-05-03T08:06:20.208Z,39.32
2023-05-03T08:07:20.176Z,21.88
2023-05-03T08:08:20.201Z,13.61
2023-05-03T08:09:20.255Z,18.98
2023-05-03T08:10:20.250Z,29.39
2023-05-03T08:11:20.245Z,24.10
2023-05-03T08:12:20.285Z,24.93
2023-05-03T08:13:20.390Z,16.12
2023-05-03T08:14:20.571Z,37.76
2023-05-03T08:15:20.478Z,32.49
2023-05-03T08:16:20.565Z,34.15
2023-05-03T08:17:20.502Z,32.92
2023-05-03T08:19:20.576Z,63.14
2023-05-03T08:20:20.966Z,76.91
2023-05-03T08:21:21.369Z,34.79
2023-05-03T08:22:20.538Z,25.84
2023-05-03T08:23:20.604Z,16.89
2023-05-03T08:24:20.601Z,24.78
2023-05-03T08:25:20.612Z,30.99
2023-05-03T08:26:20.678Z,29.07
2023-05-03T08:27:20.686Z,24.62
2023-05-03T08:28:20.767Z,24.99
2023-05-03T08:29:20.759Z,33.73
2023-05-03T08:30:20.924Z,30.94
2023-05-03T08:31:20.900Z,30.34
2023-05-03T08:32:20.868Z,25.07
2023-05-03T08:33:20.936Z,23.69
2023-05-03T08:34:20.956Z,43.84
2023-05-03T08:35:21.035Z,29.78
2023-05-03T08:36:21.242Z,20.63
2023-05-03T08:37:21.023Z,16.33
2023-05-03T08:38:21.071Z,17.45
2023-05-03T08:39:21.772Z,28.03
2023-05-03T08:40:21.169Z,53.30
2023-05-03T08:41:21.109Z,33.23
2023-05-03T08:42:21.504Z,40.77
2023-05-03T08:43:21.262Z,58.13
2023-05-03T08:44:21.601Z,24.77
2023-05-03T08:45:21.264Z,19.42
2023-05-03T08:46:21.351Z,11.83
2023-05-03T08:47:21.336Z,20.55
2023-05-03T08:48:21.366Z,6.70
2023-05-03T08:49:21.728Z,21.06
2023-05-03T08:50:21.551Z,27.54
2023-05-03T08:51:21.519Z,17.74
2023-05-03T08:52:21.459Z,22.94
2023-05-03T08:53:21.505Z,33.25
2023-05-03T08:54:21.574Z,50.63
2023-05-03T08:55:21.602Z,57.43
2023-05-03T08:56:21.621Z,57.17
2023-05-03T08:57:21.645Z,58.47
2023-05-03T08:58:21.704Z,59.76
2023-05-03T08:59:22.078Z,80.38
2023-05-03T09:00:21.849Z,64.58
2023-05-03T09:01:21.798Z,81.92
2023-05-03T09:02:22.033Z,93.53
2023-05-03T09:03:21.902Z,64.78
2023-05-03T09:04:21.938Z,52.86
2023-05-03T09:05:21.958Z,57.03
2023-05-03T09:06:22.177Z,59.99
2023-05-03T09:07:21.973Z,53.86
2023-05-03T09:08:22.034Z,49.30
2023-05-03T09:09:22.244Z,58.21
2023-05-03T09:10:22.103Z,41.48
2023-05-03T09:11:22.121Z,16.82
2023-05-03T09:12:22.161Z,26.17
2023-05-03T09:13:22.174Z,32.23
2023-05-03T09:14:22.240Z,35.48
2023-05-03T09:15:22.265Z,32.57
2023-05-03T09:16:22.379Z,28.39
2023-05-03T09:17:22.302Z,25.68
2023-05-03T09:18:22.414Z,36.30
2023-05-03T09:19:22.414Z,46.51
2023-05-03T09:20:22.424Z,54.09
2023-05-03T09:21:22.434Z,61.34
2023-05-03T09:22:22.579Z,58.38
2023-05-03T09:23:22.484Z,58.95
2023-05-03T09:24:22.797Z,84.13
2023-05-03T09:25:22.559Z,74.55
2023-05-03T09:26:22.601Z,76.75
2023-05-03T09:27:22.677Z,68.78
2023-05-03T09:28:22.681Z,72.58
2023-05-03T09:29:22.738Z,82.55
2023-05-03T09:30:22.803Z,80.43
2023-05-03T09:31:23.023Z,82.10
2023-05-03T09:32:23.814Z,94.90
2023-05-03T09:33:22.954Z,82.95
2023-05-03T09:34:22.922Z,102.12
2023-05-03T09:35:23.125Z,86.38
2023-05-03T09:36:22.984Z,84.27
2023-05-03T09:37:22.995Z,78.25
2023-05-03T09:38:23.017Z,86.57
2023-05-03T09:39:23.263Z,70.20
2023-05-03T09:40:23.172Z,37.41
2023-05-03T09:41:23.130Z,46.04
2023-05-03T09:42:23.127Z,42.20
2023-05-03T09:43:23.192Z,46.97
2023-05-03T09:44:25.165Z,52.16
2023-05-03T09:45:23.248Z,42.39
2023-05-03T09:46:23.339Z,44.80
2023-05-03T09:47:23.338Z,50.28
2023-05-03T09:48:23.375Z,39.66
2023-05-03T09:49:23.383Z,37.47
2023-05-03T09:50:23.471Z,48.63
2023-05-03T09:51:23.496Z,42.74
2023-05-03T09:52:23.515Z,39.42
2023-05-03T09:53:23.570Z,44.20
2023-05-03T09:54:23.685Z,27.85
2023-05-03T09:55:23.583Z,22.68
2023-05-03T09:56:23.616Z,33.67
2023-05-03T09:57:23.649Z,18.71
2023-05-03T09:58:23.686Z,32.87
2023-05-03T09:59:23.739Z,36.51
2023-05-03T10:00:23.717Z,32.34
2023-05-03T10:01:23.816Z,33.31
2023-05-03T10:02:23.857Z,51.04
2023-05-03T10:03:23.865Z,39.62
2023-05-03T10:04:23.965Z,46.83
2023-05-03T10:05:23.818Z,52.51
2023-05-03T10:06:23.915Z,60.34
2023-05-03T10:07:23.936Z,85.19
2023-05-03T10:08:23.911Z,96.34
2023-05-03T10:09:23.983Z,73.45
2023-05-03T10:10:24.090Z,74.85
2023-05-03T10:11:24.060Z,73.19
2023-05-03T10:12:24.122Z,85.61
2023-05-03T10:13:24.105Z,75.82
2023-05-03T10:14:24.196Z,63.68
2023-05-03T10:15:24.165Z,86.11
2023-05-03T10:16:24.273Z,79.25
2023-05-03T10:17:46.965Z,106.00
2023-05-03T10:18:25.234Z,81.97
2023-05-03T10:19:24.227Z,76.88
2023-05-03T10:20:24.204Z,88.58
2023-05-03T10:21:24.177Z,95.77
2023-05-03T10:22:24.204Z,99.60
2023-05-03T10:23:24.117Z,102.81
2023-05-03T10:24:24.151Z,102.09
2023-05-03T10:25:24.145Z,108.04
2023-05-03T10:26:24.142Z,97.10
2023-05-03T10:27:24.134Z,99.93
2023-05-03T10:28:24.128Z,101.31
2023-05-03T10:29:24.216Z,102.39
2023-05-03T10:30:24.124Z,97.95
2023-05-03T10:31:24.095Z,106.41
2023-05-03T10:32:24.116Z,72.46
2023-05-03T10:33:24.067Z,50.62
2023-05-03T10:34:24.178Z,46.28
2023-05-03T10:35:24.057Z,43.98
2023-05-03T10:36:24.064Z,34.47
2023-05-03T10:37:24.077Z,39.91
2023-05-03T10:38:24.038Z,38.21
2023-05-03T10:39:24.026Z,30.01
2023-05-03T10:40:24.047Z,29.66
2023-05-03T10:41:23.995Z,19.84
2023-05-03T10:42:24.005Z,19.47
2023-05-03T10:43:24.048Z,29.48
2023-05-03T10:44:24.116Z,27.09
2023-05-03T10:45:24.013Z,35.53
2023-05-03T10:46:23.983Z,38.88
2023-05-03T10:47:24.003Z,42.65
2023-05-03T10:48:23.980Z,38.83
2023-05-03T10:49:23.968Z,28.82
2023-05-03T10:50:24.005Z,33.54
2023-05-03T10:51:23.940Z,29.97
2023-05-03T10:52:23.959Z,31.05
2023-05-03T10:53:23.971Z,32.91
2023-05-03T10:54:23.959Z,40.75
2023-05-03T10:55:23.924Z,39.14
2023-05-03T10:56:24.087Z,34.66
2023-05-03T10:57:23.996Z,37.21
2023-05-03T10:58:24.041Z,35.91
2023-05-03T10:59:24.090Z,41.06
2023-05-03T11:00:24.134Z,46.95
2023-05-03T11:01:24.150Z,41.00
2023-05-03T11:02:24.157Z,38.35
2023-05-03T11:03:24.170Z,52.18
2023-05-03T11:04:24.316Z,43.22
2023-05-03T11:05:24.277Z,31.75
2023-05-03T11:07:43.421Z,25.00
2023-05-03T11:08:43.359Z,25.00
2023-05-03T11:09:44.261Z,25.00
2023-05-03T11:10:43.451Z,25.00
2023-05-03T11:11:43.457Z,25.00
2023-05-03T11:12:43.446Z,20.28
2023-05-03T11:13:43.463Z,92.73
2023-05-03T11:14:43.462Z,97.96
2023-05-03T11:15:43.414Z,41.80
2023-05-03T11:16:43.413Z,10.44
2023-05-03T11:17:43.416Z,28.10
2023-05-03T11:18:43.375Z,54.19
2023-05-03T11:19:43.448Z,0.00
2023-05-03T11:20:43.415Z,26.11
2023-05-03T11:21:43.362Z,72.15
2023-05-03T11:22:43.358Z,40.22
2023-05-03T11:23:43.361Z,129.71
2023-05-03T11:24:43.447Z,24.41
2023-05-03T11:25:43.451Z,59.21
2023-05-03T11:26:43.482Z,0.00
2023-05-03T11:27:44.134Z,0.00
2023-05-03T11:28:43.579Z,0.00
2023-05-03T11:29:44.093Z,0.00
2023-05-03T11:30:43.554Z,27.03
2023-05-03T11:31:43.780Z,2.23
2023-05-03T11:32:43.706Z,67.85
2023-05-03T11:33:44.111Z,0.00
2023-05-03T11:34:43.690Z,28.84
2023-05-03T11:35:43.703Z,0.00
2023-05-03T11:36:43.737Z,52.76
2023-05-03T11:37:43.750Z,0.00
2023-05-03T11:38:43.767Z,5.60
2023-05-03T11:39:43.843Z,0.00
2023-05-03T11:40:43.856Z,0.00
2023-05-03T11:41:43.892Z,0.00
2023-05-03T11:42:43.959Z,0.00
2023-05-03T11:43:43.905Z,0.00
2023-05-03T11:44:43.981Z,0.00
2023-05-03T11:45:44.255Z,42.52
2023-05-03T11:46:44.089Z,137.31
2023-05-03T11:47:44.089Z,73.23
2023-05-03T11:48:44.062Z,25.15
2023-05-03T11:49:44.128Z,0.00
2023-05-03T11:50:44.159Z,0.00
2023-05-03T11:51:47.488Z,0.00
2023-05-03T11:52:44.153Z,0.00
2023-05-03T11:53:44.133Z,0.00
2023-05-03T11:54:44.133Z,0.00
2023-05-03T11:55:44.123Z,0.00
2023-05-03T11:56:44.173Z,12.81
2023-05-03T11:57:44.128Z,79.90
2023-05-03T11:58:44.146Z,113.25
2023-05-03T11:59:44.099Z,71.22
2023-05-03T12:00:44.089Z,144.82
2023-05-03T12:01:44.084Z,188.65
2023-05-03T12:02:44.310Z,91.76
2023-05-03T12:03:44.175Z,39.60
2023-05-03T12:04:45.115Z,0.00
2023-05-03T12:05:44.523Z,0.00
2023-05-03T12:06:45.426Z,0.00
2023-05-03T12:07:44.751Z,0.00
2023-05-03T12:08:45.048Z,0.00
2023-05-03T12:09:47.374Z,0.00
2023-05-03T12:10:45.573Z,0.00
2023-05-03T12:11:45.206Z,11.47
2023-05-03T12:12:48.717Z,5.20
2023-05-03T12:13:45.260Z,0.00
2023-05-03T12:14:45.511Z,12.13
2023-05-03T12:15:46.420Z,29.25
2023-05-03T12:16:45.099Z,5.46
2023-05-03T12:17:45.622Z,1.15
2023-05-03T12:18:44.145Z,25.47
2023-05-03T12:19:44.679Z,19.22
2023-05-03T12:21:29.403Z,25.18
2023-05-03T12:21:54.125Z,2.31
2023-05-03T12:22:45.500Z,0.00
2023-05-03T12:23:45.747Z,0.00
2023-05-03T12:24:45.310Z,0.00
2023-05-03T12:25:45.061Z,35.39
2023-05-03T12:26:44.085Z,77.95
2023-05-03T12:27:45.728Z,17.16
2023-05-03T12:28:45.090Z,1.87
2023-05-03T12:29:46.898Z,11.25
2023-05-03T12:30:45.904Z,28.50
2023-05-03T12:31:44.578Z,4.88
2023-05-03T12:32:44.657Z,20.73
2023-05-03T12:33:51.139Z,50.08
2023-05-03T12:35:02.445Z,6.69
2023-05-03T12:35:47.751Z,3.84
2023-05-03T12:36:44.600Z,0.14
2023-05-03T12:37:44.405Z,0.00
2023-05-03T12:38:44.443Z,0.00
2023-05-03T12:39:46.428Z,67.67
2023-05-03T12:40:45.677Z,4.73
2023-05-03T12:42:44.331Z,80.36